Time;durP1;ratioP1;P1;durP2;ratioP2;P2;SDS_P1;SDS_P2;PMS_P1;PMS_P2;Temp;Humidity;BMP_temperature;BMP_pressure;BME280_temperature;BME280_humidity;BME280_pressure;Samples;Min_cycle;Max_cycle;Signal;HPM_P1;HPM_P2
2023/12/02 00:00:31;;;;;;;0.10;0.10;;;;;;;0.20;93.62;100045.19;4837809;29;20033;-77
2023/12/02 00:02:57;;;;;;;0.00;0.00;;;;;;;0.20;93.49;100053.25;4832699;29;20041;-76
2023/12/02 00:05:22;;;;;;;0.10;0.10;;;;;;;0.13;93.95;100046.03;4836024;29;20036;-76
2023/12/02 00:07:48;;;;;;;0.00;0.00;;;;;;;0.13;93.74;100040.66;4828141;29;21190;-78
2023/12/02 00:10:13;;;;;;;0.00;0.00;;;;;;;0.11;93.87;100031.94;4849694;29;20375;-77
2023/12/02 00:12:39;;;;;;;0.10;0.10;;;;;;;0.05;94.12;100032.78;4857554;29;20662;-77
2023/12/02 00:15:04;;;;;;;0.10;0.10;;;;;;;-0.22;94.10;100002.34;4848927;29;20033;-76
2023/12/02 00:17:30;;;;;;;0.10;0.10;;;;;;;0.00;93.86;100043.34;4847861;29;20033;-76
2023/12/02 00:19:55;;;;;;;0.10;0.10;;;;;;;-0.02;93.46;100038.13;4837526;29;20108;-75
2023/12/02 00:22:23;;;;;;;0.10;0.10;;;;;;;0.03;93.48;100042.06;4825169;29;20495;-76
2023/12/02 00:24:48;;;;;;;0.00;0.00;;;;;;;-0.02;93.68;100040.00;4841484;29;20038;-76
2023/12/02 00:27:15;;;;;;;0.10;0.10;;;;;;;0.07;93.70;100046.81;4848518;29;20124;-76
2023/12/02 00:29:41;;;;;;;0.00;0.00;;;;;;;0.06;93.62;100036.28;4837021;29;20040;-76
2023/12/02 00:32:06;;;;;;;0.00;0.00;;;;;;;0.12;93.95;100051.63;4829613;29;20037;-76
2023/12/02 00:34:32;;;;;;;0.10;0.10;;;;;;;0.14;93.67;100047.66;4838186;29;20081;-75
2023/12/02 00:36:57;;;;;;;0.00;0.00;;;;;;;0.09;93.89;100038.56;4832996;29;20036;-77
2023/12/02 00:39:22;;;;;;;0.00;0.00;;;;;;;0.12;93.55;100049.75;4822032;29;20126;-76
2023/12/02 00:41:49;;;;;;;0.00;0.00;;;;;;;-0.03;93.54;100035.66;4838168;29;20041;-76
2023/12/02 00:44:14;;;;;;;0.00;0.00;;;;;;;0.00;93.14;100043.34;4840111;29;20480;-75
2023/12/02 00:46:40;;;;;;;0.00;0.00;;;;;;;-0.12;93.18;100051.16;4856495;29;20061;-75
2023/12/02 00:49:06;;;;;;;0.00;0.00;;;;;;;-0.09;93.87;100049.94;4839965;29;20036;-76
2023/12/02 00:51:32;;;;;;;0.10;0.10;;;;;;;-0.12;93.45;100050.34;4856534;29;20021;-75
2023/12/02 00:53:57;;;;;;;0.00;0.00;;;;;;;-0.13;94.09;100048.69;4866158;29;20086;-75
2023/12/02 00:56:22;;;;;;;0.00;0.00;;;;;;;-0.21;93.57;100036.28;4845446;29;20065;-77
2023/12/02 00:58:48;;;;;;;0.00;0.00;;;;;;;-0.23;93.48;100039.16;4848633;29;20037;-75
2023/12/02 01:01:13;;;;;;;0.10;0.10;;;;;;;-0.26;93.74;100036.88;4840697;29;20466;-76
2023/12/02 01:03:39;;;;;;;0.10;0.10;;;;;;;-0.26;93.94;100030.69;4831851;29;20036;-76
2023/12/02 01:06:04;;;;;;;0.10;0.10;;;;;;;-0.19;93.64;100039.56;4830384;29;20629;-77
2023/12/02 01:08:30;;;;;;;0.10;0.10;;;;;;;-0.21;94.25;100034.41;4837557;29;20045;-76
2023/12/02 01:10:55;;;;;;;0.10;0.10;;;;;;;-0.27;94.16;100034.41;4845568;29;20042;-77
2023/12/02 01:13:21;;;;;;;0.00;0.00;;;;;;;-0.32;93.65;100035.03;4819262;29;20028;-76
2023/12/02 01:15:46;;;;;;;0.10;0.10;;;;;;;-0.32;93.87;100043.09;4852549;29;20032;-76
2023/12/02 01:18:12;;;;;;;0.00;0.00;;;;;;;-0.34;93.86;100042.44;4823345;29;20033;-76
2023/12/02 01:20:38;;;;;;;0.00;0.00;;;;;;;-0.33;94.27;100044.09;4869700;29;20029;-75
2023/12/02 01:23:03;;;;;;;0.10;0.10;;;;;;;-0.34;94.52;100049.69;4848118;29;20128;-76
2023/12/02 01:25:28;;;;;;;0.10;0.10;;;;;;;-0.35;94.44;100046.19;4855935;29;20529;-77
2023/12/02 01:27:54;;;;;;;0.00;0.00;;;;;;;-0.31;93.97;100046.59;4837883;29;20036;-76
2023/12/02 01:30:19;;;;;;;0.00;0.00;;;;;;;-0.28;94.54;100046.19;4846122;29;20049;-75
2023/12/02 01:32:45;;;;;;;0.10;0.10;;;;;;;-0.29;93.82;100049.88;4847864;29;20068;-76
2023/12/02 01:35:10;;;;;;;0.05;0.05;;;;;;;-0.40;94.76;100038.72;4833647;29;20044;-73
2023/12/02 01:37:38;;;;;;;0.00;0.00;;;;;;;-0.30;94.70;100059.81;4863385;29;20029;-75
2023/12/02 01:40:04;;;;;;;0.00;0.00;;;;;;;-0.34;94.09;100058.56;4844261;29;20690;-74
2023/12/02 01:42:30;;;;;;;0.10;0.10;;;;;;;-0.30;94.74;100065.19;4839874;29;20047;-74
2023/12/02 01:44:55;;;;;;;0.10;0.10;;;;;;;-0.32;94.15;100051.16;4839146;29;20029;-75
2023/12/02 01:47:20;;;;;;;0.00;0.00;;;;;;;-0.25;95.09;100065.44;4836689;29;20435;-74
2023/12/02 01:49:47;;;;;;;0.00;0.00;;;;;;;-0.21;94.34;100068.53;4862459;29;20037;-76
2023/12/02 01:52:13;;;;;;;0.10;0.10;;;;;;;-0.34;94.11;100053.19;4850609;29;20094;-75
2023/12/02 01:54:38;;;;;;;0.00;0.00;;;;;;;-0.37;94.58;100059.78;4840692;29;20456;-76
2023/12/02 01:57:04;;;;;;;0.10;0.10;;;;;;;-0.43;94.53;100054.41;4833845;29;20073;-76
2023/12/02 01:59:30;;;;;;;0.10;0.10;;;;;;;-0.34;94.72;100074.69;4844422;29;20108;-76
2023/12/02 02:01:56;;;;;;;0.00;0.00;;;;;;;-0.36;94.78;100079.44;4840811;29;20033;-76
2023/12/02 02:04:22;;;;;;;0.10;0.10;;;;;;;-0.37;95.19;100086.66;4856942;29;20025;-77
2023/12/02 02:06:49;;;;;;;0.00;0.00;;;;;;;-0.45;95.08;100077.97;4865779;29;20483;-76
2023/12/02 02:09:15;;;;;;;0.10;0.10;;;;;;;-0.41;95.42;100084.59;4871296;29;20033;-76
2023/12/02 02:11:40;;;;;;;0.10;0.10;;;;;;;-0.50;95.41;100069.69;4858308;29;20021;-77
2023/12/02 02:14:06;;;;;;;0.00;0.00;;;;;;;-0.70;94.95;100030.19;4856343;29;20272;-75
2023/12/02 02:16:31;;;;;;;0.10;0.10;;;;;;;-0.57;95.21;100062.44;4830678;29;20128;-77
2023/12/02 02:18:57;;;;;;;0.10;0.10;;;;;;;-0.61;95.30;100058.50;4863161;29;20041;-77
2023/12/02 02:21:22;;;;;;;0.10;0.10;;;;;;;-0.54;95.36;100080.84;4830475;29;20033;-77
2023/12/02 02:23:48;;;;;;;0.10;0.10;;;;;;;-0.62;95.30;100072.94;4850890;29;20044;-76
2023/12/02 02:26:16;;;;;;;0.10;0.10;;;;;;;-0.51;95.49;100092.19;4867070;29;20037;-77
2023/12/02 02:28:41;;;;;;;0.10;0.10;;;;;;;-0.43;95.07;100108.16;4822397;29;20084;-75
2023/12/02 02:31:09;;;;;;;0.00;0.00;;;;;;;-0.51;95.64;100102.94;4846167;29;20033;-76
2023/12/02 02:33:35;;;;;;;0.10;0.10;;;;;;;-0.51;94.97;100102.94;4845086;29;20029;-76
2023/12/02 02:36:00;;;;;;;0.00;0.00;;;;;;;-0.46;95.27;100105.88;4850187;29;20085;-76
2023/12/02 02:38:28;;;;;;;0.00;0.00;;;;;;;-0.42;95.22;100104.44;4836967;29;20036;-76
2023/12/02 02:40:53;;;;;;;0.10;0.10;;;;;;;-0.42;95.09;100115.19;4856017;29;20432;-76
2023/12/02 02:43:19;;;;;;;0.00;0.00;;;;;;;-0.49;95.20;100104.41;4859007;29;20384;-76
2023/12/02 02:45:45;;;;;;;0.10;0.10;;;;;;;-0.41;95.33;100116.81;4849444;29;20109;-76
2023/12/02 02:48:11;;;;;;;0.00;0.00;;;;;;;-0.53;95.36;100100.47;4840066;29;20041;-76
2023/12/02 02:50:37;;;;;;;0.00;0.00;;;;;;;-0.32;94.94;100126.38;4865643;29;20025;-76
2023/12/02 02:53:02;;;;;;;0.00;0.00;;;;;;;-0.43;95.05;100122.41;4862988;29;20044;-76
2023/12/02 02:55:29;;;;;;;0.10;0.10;;;;;;;-0.45;95.46;100132.53;4835406;29;20404;-75
2023/12/02 02:57:54;;;;;;;0.10;0.10;;;;;;;-0.47;95.07;100147.19;4827602;29;20074;-75
2023/12/02 03:00:20;;;;;;;0.00;0.00;;;;;;;-0.50;95.74;100150.28;4851610;29;20048;-74
2023/12/02 03:02:45;;;;;;;0.00;0.00;;;;;;;-0.52;95.09;100153.16;4834104;29;20038;-75
2023/12/02 03:05:11;;;;;;;0.10;0.10;;;;;;;-0.50;96.02;100147.59;4850290;29;20124;-74
2023/12/02 03:07:36;;;;;;;0.00;0.00;;;;;;;-0.49;95.46;100147.41;4854648;29;20396;-75
2023/12/02 03:10:02;;;;;;;0.10;0.10;;;;;;;-0.48;95.44;100138.31;4843133;29;20461;-75
2023/12/02 03:12:28;;;;;;;0.00;0.00;;;;;;;-0.50;95.25;100140.34;4824900;29;20113;-75
2023/12/02 03:14:54;;;;;;;0.10;0.10;;;;;;;-0.49;95.27;100143.88;4847853;29;20108;-74
2023/12/02 03:17:20;;;;;;;0.00;0.00;;;;;;;-0.45;95.35;100154.03;4855033;29;20040;-74
2023/12/02 03:19:48;;;;;;;0.00;0.00;;;;;;;-0.43;94.83;100153.81;4841651;29;20028;-76
2023/12/02 03:22:15;;;;;;;0.10;0.10;;;;;;;-0.45;94.99;100148.66;4853974;29;20037;-76
2023/12/02 03:24:40;;;;;;;0.00;0.00;;;;;;;-0.47;95.82;100149.88;4875828;29;20169;-75
2023/12/02 03:27:06;;;;;;;0.00;0.00;;;;;;;-0.45;95.61;100159.41;4859174;29;20112;-76
2023/12/02 03:29:31;;;;;;;0.10;0.10;;;;;;;-0.55;95.59;100149.03;4856320;29;20032;-74
2023/12/02 03:31:57;;;;;;;0.00;0.00;;;;;;;-0.54;95.77;100153.38;4842386;29;20037;-75
2023/12/02 03:34:22;;;;;;;0.00;0.00;;;;;;;-0.55;96.11;100154.38;4850462;29;20124;-75
2023/12/02 03:36:48;;;;;;;0.10;0.10;;;;;;;-0.62;95.96;100158.91;4852368;29;20860;-75
2023/12/02 03:39:13;;;;;;;0.10;0.10;;;;;;;-0.64;95.52;100155.59;4850502;29;20041;-75
2023/12/02 03:41:42;;;;;;;0.00;0.00;;;;;;;-0.64;95.76;100144.84;4863340;29;20041;-74
2023/12/02 03:44:09;;;;;;;0.00;0.00;;;;;;;-0.61;95.60;100155.19;4867199;29;20471;-75
2023/12/02 03:46:35;;;;;;;0.10;0.10;;;;;;;-0.62;96.12;100153.53;4852253;29;20494;-77
2023/12/02 03:49:01;;;;;;;0.00;0.00;;;;;;;-0.59;95.53;100153.13;4851473;29;20193;-75
2023/12/02 03:51:27;;;;;;;0.10;0.10;;;;;;;-0.58;95.30;100144.03;4856346;29;20499;-77
2023/12/02 03:53:52;;;;;;;0.10;0.10;;;;;;;-0.48;95.22;100153.59;4849217;29;20037;-75
2023/12/02 03:56:19;;;;;;;0.00;0.00;;;;;;;-0.50;95.39;100144.91;4851007;29;20248;-75
2023/12/02 03:58:45;;;;;;;0.00;0.00;;;;;;;-0.52;95.57;100153.16;4845205;29;20029;-76
2023/12/02 04:01:11;;;;;;;0.10;0.10;;;;;;;-0.58;94.93;100154.78;4842571;29;20040;-74
2023/12/02 04:03:36;;;;;;;0.10;0.10;;;;;;;-0.63;94.90;100149.19;4833301;29;20119;-76
2023/12/02 04:06:01;;;;;;;0.10;0.10;;;;;;;-0.59;95.25;100147.75;4842690;29;20047;-76
2023/12/02 04:08:27;;;;;;;0.00;0.00;;;;;;;-0.65;96.04;100150.44;4849717;29;20443;-76
2023/12/02 04:10:52;;;;;;;0.10;0.10;;;;;;;-0.68;95.18;100154.31;4825913;29;20047;-77
2023/12/02 04:13:18;;;;;;;0.10;0.10;;;;;;;-0.68;95.51;100159.69;4822533;29;20034;-76
2023/12/02 04:15:46;;;;;;;0.10;0.10;;;;;;;-0.76;94.98;100151.78;4843692;29;20048;-76
2023/12/02 04:18:11;;;;;;;0.00;0.00;;;;;;;-0.78;94.75;100148.50;4850110;29;20093;-76
2023/12/02 04:20:37;;;;;;;0.00;0.00;;;;;;;-0.77;95.06;100155.53;4853500;29;20061;-76
2023/12/02 04:23:02;;;;;;;0.10;0.10;;;;;;;-0.80;94.89;100150.56;4845673;29;20041;-76
2023/12/02 04:25:28;;;;;;;0.10;0.10;;;;;;;-0.91;95.23;100150.06;4850445;29;20373;-76
2023/12/02 04:27:54;;;;;;;0.10;0.10;;;;;;;-0.88;94.83;100160.44;4835907;29;20059;-76
2023/12/02 04:30:19;;;;;;;0.10;0.10;;;;;;;-0.84;95.67;100160.84;4838591;29;20051;-78
2023/12/02 04:32:44;;;;;;;0.00;0.00;;;;;;;-0.84;95.69;100160.03;4846534;29;20036;-77
2023/12/02 04:35:10;;;;;;;0.00;0.00;;;;;;;-0.84;95.61;100165.41;4827871;29;20040;-74
2023/12/02 04:37:35;;;;;;;0.10;0.10;;;;;;;-0.89;95.74;100164.13;4841568;29;20489;-76
2023/12/02 04:40:04;;;;;;;0.00;0.00;;;;;;;-0.91;95.18;100159.97;4832276;29;20362;-75
2023/12/02 04:42:30;;;;;;;0.00;0.00;;;;;;;-0.95;94.95;100161.38;4848682;29;20028;-75
2023/12/02 04:44:55;;;;;;;0.00;0.00;;;;;;;-0.95;95.13;100159.56;4837827;29;20041;-75
2023/12/02 04:47:21;;;;;;;0.10;0.10;;;;;;;-0.93;95.13;100167.41;4840561;29;20072;-76
2023/12/02 04:49:46;;;;;;;0.00;0.00;;;;;;;-0.88;95.33;100181.91;4859191;29;20029;-76
2023/12/02 04:52:11;;;;;;;0.10;0.10;;;;;;;-0.89;94.76;100182.91;4835486;29;20441;-75
2023/12/02 04:54:37;;;;;;;0.10;0.10;;;;;;;-0.92;95.52;100177.94;4848453;29;20440;-76
2023/12/02 04:57:02;;;;;;;0.00;0.00;;;;;;;-0.90;95.17;100183.94;4818882;29;20050;-76
2023/12/02 04:59:28;;;;;;;0.00;0.00;;;;;;;-0.96;94.90;100190.09;4854610;29;20037;-77
2023/12/02 05:01:54;;;;;;;0.00;0.00;;;;;;;-1.02;94.82;100185.53;4849547;29;20112;-75
2023/12/02 05:04:19;;;;;;;0.10;0.10;;;;;;;-0.97;95.26;100191.13;4818484;29;21542;-76
2023/12/02 05:06:45;;;;;;;0.00;0.00;;;;;;;-1.08;95.45;100197.88;4825821;29;20057;-77
2023/12/02 05:09:10;;;;;;;0.10;0.10;;;;;;;-1.10;95.69;100199.91;4846514;29;20108;-77
2023/12/02 05:11:36;;;;;;;0.10;0.10;;;;;;;-1.11;95.72;100200.09;4836990;29;20041;-77
2023/12/02 05:14:01;;;;;;;0.00;0.00;;;;;;;-1.17;94.91;100190.16;4849115;29;20109;-77
2023/12/02 05:16:27;;;;;;;0.00;0.00;;;;;;;-1.24;95.32;100204.34;4842555;29;20215;-79
2023/12/02 05:18:52;;;;;;;0.10;0.10;;;;;;;-1.27;95.30;100196.69;4830926;29;20044;-77
2023/12/02 05:21:18;;;;;;;0.00;0.00;;;;;;;-1.23;95.01;100205.16;4828147;29;20034;-76
2023/12/02 05:23:44;;;;;;;0.10;0.10;;;;;;;-1.25;95.12;100201.84;4835078;29;20054;-78
2023/12/02 05:26:10;;;;;;;0.00;0.00;;;;;;;-1.20;95.56;100209.31;4850214;29;20112;-77
2023/12/02 05:28:37;;;;;;;0.10;0.10;;;;;;;-1.30;95.42;100210.50;4818057;29;20734;-76
2023/12/02 05:31:03;;;;;;;0.10;0.10;;;;;;;-1.33;95.10;100215.41;4855461;29;20078;-76
2023/12/02 05:33:28;;;;;;;0.10;0.10;;;;;;;-1.29;95.56;100225.53;4839477;29;20112;-77
2023/12/02 05:35:54;;;;;;;0.10;0.10;;;;;;;-1.28;95.26;100235.25;4855668;29;20193;-77
2023/12/02 05:38:19;;;;;;;0.00;0.00;;;;;;;-1.35;95.66;100234.38;4840213;29;20033;-77
2023/12/02 05:40:45;;;;;;;0.10;0.10;;;;;;;-1.38;95.22;100218.66;4840567;29;20047;-75
2023/12/02 05:43:13;;;;;;;0.00;0.00;;;;;;;-1.35;95.38;100222.81;4831987;29;20037;-74
2023/12/02 05:45:38;;;;;;;0.10;0.10;;;;;;;-1.35;96.37;100218.28;4831616;29;20049;-75
2023/12/02 05:48:05;;;;;;;0.00;0.00;;;;;;;-1.33;96.03;100226.13;4836617;29;20063;-76
2023/12/02 05:50:31;;;;;;;0.00;0.00;;;;;;;-1.38;96.01;100234.75;4827489;29;20038;-76
2023/12/02 05:52:56;;;;;;;0.10;0.10;;;;;;;-1.44;95.95;100224.81;4855570;29;20033;-76
2023/12/02 05:55:22;;;;;;;0.10;0.10;;;;;;;-1.55;96.88;100228.81;4855352;29;20511;-75
2023/12/02 05:57:47;;;;;;;0.00;0.00;;;;;;;-1.62;96.81;100225.22;4826583;29;20054;-76
2023/12/02 06:00:16;;;;;;;0.00;0.00;;;;;;;-1.66;97.29;100238.19;4836065;29;20038;-76
2023/12/02 06:02:42;;;;;;;0.00;0.00;;;;;;;-1.64;96.59;100229.97;4842025;29;20689;-76
2023/12/02 06:05:07;;;;;;;0.10;0.10;;;;;;;-1.64;96.64;100232.66;4851136;29;20086;-76
2023/12/02 06:07:33;;;;;;;0.00;0.00;;;;;;;-1.60;97.21;100233.94;4840220;29;20037;-76
2023/12/02 06:09:58;;;;;;;0.00;0.00;;;;;;;-1.65;96.76;100239.88;4841156;29;20040;-76
2023/12/02 06:12:24;;;;;;;0.00;0.00;;;;;;;-1.61;97.45;100241.16;4826297;29;20040;-76
2023/12/02 06:14:51;;;;;;;0.00;0.00;;;;;;;-1.50;97.80;100247.84;4830599;29;20086;-75
2023/12/02 06:17:17;;;;;;;0.10;0.10;;;;;;;-1.47;97.59;100235.94;4836684;29;20026;-77
2023/12/02 06:19:42;;;;;;;0.10;0.10;;;;;;;-1.47;97.32;100227.88;4849007;29;20056;-76
2023/12/02 06:22:07;;;;;;;0.10;0.10;;;;;;;-1.32;97.29;100246.59;4838051;29;20068;-75
2023/12/02 06:24:33;;;;;;;0.10;0.10;;;;;;;-1.31;97.92;100250.94;4849552;29;20033;-75
2023/12/02 06:26:58;;;;;;;0.10;0.10;;;;;;;-1.38;97.91;100248.16;4813663;29;20034;-75
2023/12/02 06:29:24;;;;;;;0.00;0.00;;;;;;;-1.39;97.48;100259.91;4834579;29;20041;-74
2023/12/02 06:31:50;;;;;;;0.10;0.10;;;;;;;-1.44;97.70;100248.94;4824547;29;20038;-74
2023/12/02 06:34:16;;;;;;;0.10;0.10;;;;;;;-1.50;98.26;100257.78;4846645;29;20449;-74
2023/12/02 06:36:42;;;;;;;0.10;0.10;;;;;;;-1.48;97.34;100259.22;4862427;29;20061;-75
2023/12/02 06:39:08;;;;;;;0.10;0.10;;;;;;;-1.41;98.24;100270.03;4839561;29;20456;-75
2023/12/02 06:41:34;;;;;;;0.00;0.00;;;;;;;-1.55;97.32;100265.53;4849025;29;20117;-75
2023/12/02 06:43:59;;;;;;;0.00;0.00;;;;;;;-1.66;98.17;100259.66;4845996;29;20431;-74
2023/12/02 06:46:25;;;;;;;0.10;0.10;;;;;;;-1.64;97.77;100257.59;4840198;29;20055;-77
2023/12/02 06:48:51;;;;;;;0.10;0.10;;;;;;;-1.67;98.06;100265.22;4844200;29;20037;-76
2023/12/02 06:51:17;;;;;;;0.10;0.10;;;;;;;-1.69;97.01;100267.25;4835036;29;20053;-75
2023/12/02 06:53:42;;;;;;;0.10;0.10;;;;;;;-1.77;97.65;100254.78;4850481;29;20057;-76
2023/12/02 06:56:21;;;;;;;0.10;0.10;;;;;;;-1.64;97.30;100276.38;4852625;29;20455;-76
2023/12/02 06:58:48;;;;;;;0.10;0.10;;;;;;;-1.70;97.61;100260.22;4858445;29;20030;-76
2023/12/02 07:01:29;;;;;;;0.00;0.00;;;;;;;-1.59;97.85;100276.66;4855038;29;20048;-77
2023/12/02 07:03:58;;;;;;;0.10;0.10;;;;;;;-1.66;97.12;100274.94;4855119;29;20038;-76
2023/12/02 07:06:26;;;;;;;0.10;0.10;;;;;;;-1.83;97.58;100275.13;4847358;29;20591;-75
2023/12/02 07:08:53;;;;;;;0.10;0.10;;;;;;;-1.94;97.85;100284.50;4842941;29;20036;-76
2023/12/02 07:11:19;;;;;;;0.10;0.10;;;;;;;-1.90;98.86;100289.47;4835246;29;20387;-74
2023/12/02 07:13:44;;;;;;;0.10;0.10;;;;;;;-2.04;97.38;100267.06;4853122;29;20029;-76
2023/12/02 07:16:10;;;;;;;0.00;0.00;;;;;;;-1.89;98.08;100291.97;4849934;29;20044;-77
2023/12/02 07:18:36;;;;;;;0.10;0.10;;;;;;;-1.90;98.36;100287.63;4851473;29;20503;-77
2023/12/02 07:21:01;;;;;;;0.10;0.10;;;;;;;-1.87;97.93;100289.09;4834808;29;20065;-76
2023/12/02 07:23:38;;;;;;;;;;;;;;;;;;;;;
2023/12/02 07:26:15;;;;;;;0.10;0.10;;;;;;;-1.96;98.11;100291.91;4853093;29;20028;-76
2023/12/02 07:28:51;;;;;;;;;;;;;;;;;;;;;
2023/12/02 07:31:20;;;;;;;0.00;0.00;;;;;;;-2.08;98.00;100309.47;4847948;29;20144;-75
2023/12/02 07:33:50;;;;;;;0.10;0.10;;;;;;;-2.01;97.79;100315.75;4834218;29;20453;-77
2023/12/02 07:36:16;;;;;;;0.10;0.10;;;;;;;-2.06;98.39;100307.41;4841871;29;20057;-75
2023/12/02 07:38:41;;;;;;;0.10;0.10;;;;;;;-2.16;98.63;100296.16;4846238;29;20737;-76
2023/12/02 07:41:12;;;;;;;0.10;0.10;;;;;;;-2.00;97.93;100309.38;4842973;29;20052;-76
2023/12/02 07:43:40;;;;;;;0.10;0.10;;;;;;;-1.98;98.68;100315.38;4849485;29;20037;-77
2023/12/02 07:46:06;;;;;;;0.10;0.10;;;;;;;-1.95;98.03;100320.34;4859037;29;20045;-75
2023/12/02 07:48:32;;;;;;;0.10;0.10;;;;;;;-2.06;98.39;100301.25;4837180;29;20084;-75
2023/12/02 07:51:04;;;;;;;0.10;0.10;;;;;;;-1.99;97.66;100321.72;4852204;29;20786;-77
2023/12/02 07:53:36;;;;;;;0.00;0.00;;;;;;;-1.95;98.38;100325.72;4837168;29;20105;-76
2023/12/02 07:56:12;;;;;;;0.10;0.10;;;;;;;-1.96;97.86;100324.06;4830994;29;20064;-76
2023/12/02 07:59:04;;;;;;;0.10;0.10;;;;;;;-1.92;98.61;100318.34;4838814;29;20048;-77
2023/12/02 08:01:41;;;;;;;0.10;0.10;;;;;;;-2.11;98.32;100281.19;4845506;29;20045;-75
2023/12/02 08:04:08;;;;;;;0.10;0.10;;;;;;;-1.81;98.96;100332.09;4847708;29;20128;-75
2023/12/02 08:06:36;;;;;;;0.10;0.10;;;;;;;-1.83;98.27;100327.94;4845978;29;20029;-75
2023/12/02 08:09:01;;;;;;;0.10;0.10;;;;;;;-1.82;98.60;100335.78;4845239;29;20033;-75
2023/12/02 08:11:27;;;;;;;0.10;0.10;;;;;;;-1.92;98.02;100316.47;4825302;29;20026;-75
2023/12/02 08:13:53;;;;;;;0.10;0.10;;;;;;;-1.92;97.29;100321.00;4821866;29;20398;-74
2023/12/02 08:16:18;;;;;;;0.10;0.10;;;;;;;-1.85;97.86;100329.97;4836662;29;20077;-76
2023/12/02 08:18:43;;;;;;;0.10;0.10;;;;;;;-1.81;97.89;100347.31;4834775;29;20036;-76
2023/12/02 08:21:09;;;;;;;0.10;0.10;;;;;;;-1.78;97.86;100341.63;4855010;29;20038;-77
2023/12/02 08:23:34;;;;;;;0.10;0.10;;;;;;;-1.79;98.08;100339.94;4826885;29;20034;-76
2023/12/02 08:26:00;;;;;;;0.10;0.10;;;;;;;-1.65;97.07;100347.13;4856264;29;20044;-75
2023/12/02 08:28:25;;;;;;;0.10;0.10;;;;;;;-1.76;97.97;100318.13;4831551;29;20030;-75
2023/12/02 08:30:59;;;;;;;0.10;0.10;;;;;;;-1.59;97.46;100340.19;4837797;29;20033;-76
2023/12/02 08:33:28;;;;;;;0.00;0.00;;;;;;;-1.56;97.41;100336.28;4843726;29;20030;-75
2023/12/02 08:36:06;;;;;;;0.00;0.00;;;;;;;-1.45;97.72;100366.13;4841606;29;20029;-76
2023/12/02 08:38:41;;;;;;;0.10;0.10;;;;;;;-1.51;97.20;100341.91;4833680;29;20076;-75
2023/12/02 08:41:07;;;;;;;0.10;0.10;;;;;;;-1.58;96.17;100337.31;4846252;29;20085;-75
2023/12/02 08:43:43;;;;;;;0.00;0.00;;;;;;;-1.55;96.71;100351.34;4843200;29;20046;-75
2023/12/02 08:46:56;;;;;;;0.10;0.10;;;;;;;-1.57;96.96;100373.00;4849063;29;20393;-75
2023/12/02 08:49:21;;;;;;;0.10;0.10;;;;;;;-1.90;95.92;100348.44;4842189;29;20049;-74
2023/12/02 08:51:47;;;;;;;0.10;0.10;;;;;;;-1.85;95.96;100362.13;4850313;29;20036;-76
2023/12/02 12:56:02;;;;;;;0.00;0.00;;;;;;;7.23;60.61;100381.47;4865467;29;20068;-77
2023/12/02 12:58:28;;;;;;;0.00;0.00;;;;;;;7.00;61.41;100394.13;4850195;29;20037;-75
2023/12/02 13:00:57;;;;;;;0.00;0.00;;;;;;;7.02;61.21;100381.09;4837319;29;20490;-77
2023/12/02 13:03:49;;;;;;;0.00;0.00;;;;;;;7.61;60.98;100404.44;4843936;29;20025;-76
2023/12/02 13:06:46;;;;;;;0.00;0.00;;;;;;;7.62;59.26;100362.53;4849103;29;20037;-76
2023/12/02 13:09:20;;;;;;;0.00;0.00;;;;;;;7.64;58.32;100365.84;4847365;29;20709;-76
2023/12/02 13:11:45;;;;;;;;;;;;;;;8.26;57.08;100399.44;4838567;29;20384;-77
2023/12/02 13:14:44;;;;;;;;;;;;;;;;;;;;;
2023/12/02 13:17:12;;;;;;;0.00;0.00;;;;;;;7.20;56.21;100376.50;4862648;29;20039;-77
2023/12/02 13:19:49;;;;;;;0.00;0.00;;;;;;;7.22;56.36;100368.94;4869490;29;20044;-76
2023/12/02 13:22:27;;;;;;;;;;;;;;;;;;;;;
2023/12/02 13:25:01;;;;;;;0.00;0.00;;;;;;;8.72;54.95;100397.34;4854254;29;20029;-76
2023/12/02 13:27:39;;;;;;;0.10;0.10;;;;;;;8.74;54.39;100371.44;4851206;29;20097;-76
2023/12/02 13:30:06;;;;;;;0.00;0.00;;;;;;;8.10;53.50;100407.38;4871307;29;20084;-77
2023/12/02 13:32:35;;;;;;;0.00;0.00;;;;;;;6.87;55.54;100410.72;4840433;29;20027;-76
2023/12/02 13:35:07;;;;;;;0.00;0.00;;;;;;;5.84;57.54;100406.59;4837473;29;20045;-76
2023/12/02 13:37:48;;;;;;;0.00;0.00;;;;;;;5.69;59.00;100404.31;4869164;29;20031;-77
2023/12/02 13:40:18;;;;;;;0.00;0.00;;;;;;;5.40;59.14;100404.16;4850594;29;20189;-78
2023/12/02 13:42:49;;;;;;;0.00;0.00;;;;;;;4.81;60.08;100403.94;4852078;29;20032;-78
2023/12/02 13:49:06;;;;;;;;;;;;;;;;;;;;;
2023/12/02 13:51:41;;;;;;;0.00;0.00;;;;;;;4.65;61.39;100359.31;4798322;29;20042;-77
2023/12/02 13:54:10;;;;;;;;;;;;;;;4.95;61.22;100407.31;4799231;29;20115;-79
2023/12/02 13:56:54;;;;;;;0.00;0.00;;;;;;;4.53;61.57;100404.50;4856241;29;19916;-78
2023/12/02 13:59:35;;;;;;;0.00;0.00;;;;;;;4.30;62.45;100416.81;4866091;29;20384;-77
2023/12/02 14:02:34;;;;;;;0.10;0.10;;;;;;;4.15;63.22;100410.94;4853575;29;20048;-75
2023/12/02 14:05:10;;;;;;;0.00;0.00;;;;;;;4.46;62.99;100409.16;4865080;29;20061;-77
2023/12/02 14:07:45;;;;;;;0.00;0.00;;;;;;;4.37;62.69;100411.34;4853724;29;20079;-76
2023/12/02 14:10:16;;;;;;;0.00;0.00;;;;;;;3.97;63.03;100407.16;4864284;29;20435;-74
2023/12/02 14:13:03;;;;;;;0.10;0.10;;;;;;;3.76;64.49;100426.50;4862226;29;20020;-75
2023/12/02 14:15:50;;;;;;;0.00;0.00;;;;;;;3.52;65.38;100425.44;4849685;29;21494;-75
2023/12/02 14:18:43;;;;;;;0.00;0.00;;;;;;;3.52;65.82;100420.88;4863502;29;20025;-75
2023/12/02 14:21:33;;;;;;;0.00;0.00;;;;;;;3.00;66.00;100412.88;4857978;29;20109;-75
2023/12/02 14:24:28;;;;;;;0.10;0.10;;;;;;;2.69;68.08;100419.06;4857497;29;20033;-76
2023/12/02 14:26:56;;;;;;;;;;;;;;;2.50;68.99;100424.31;4860889;29;20040;-74
2023/12/02 14:29:35;;;;;;;0.00;0.00;;;;;;;1.96;69.88;100406.56;4875411;29;19922;-75
2023/12/02 14:32:26;;;;;;;0.00;0.00;;;;;;;1.51;71.59;100416.13;4855027;29;20113;-74
2023/12/02 14:34:54;;;;;;;0.00;0.00;;;;;;;1.36;72.91;100412.81;4854694;29;20021;-76
2023/12/02 14:37:56;;;;;;;0.00;0.00;;;;;;;1.47;73.03;100414.06;4872238;29;20037;-75
2023/12/02 14:40:43;;;;;;;0.10;0.10;;;;;;;1.50;73.68;100414.47;4843226;29;20033;-75
2023/12/02 14:43:17;;;;;;;0.00;0.00;;;;;;;1.70;73.82;100409.09;4857695;29;20169;-75
2023/12/02 14:45:43;;;;;;;0.00;0.00;;;;;;;1.91;73.33;100415.28;4871648;29;20052;-75
2023/12/02 14:48:13;;;;;;;0.00;0.00;;;;;;;1.79;73.20;100404.31;4852173;29;20083;-76
2023/12/02 14:50:52;;;;;;;0.00;0.00;;;;;;;1.66;73.41;100407.00;4843350;29;20033;-74
2023/12/02 14:53:21;;;;;;;0.00;0.00;;;;;;;1.36;74.03;100393.94;4853208;29;20037;-73
2023/12/02 14:55:46;;;;;;;0.10;0.10;;;;;;;1.22;74.84;100385.84;4870144;29;20132;-75
2023/12/02 14:58:33;;;;;;;;;;;;;;;;;;;;;
2023/12/02 15:01:12;;;;;;;0.00;0.00;;;;;;;0.80;76.03;100371.66;4864946;29;20043;-78
2023/12/02 15:03:45;;;;;;;0.00;0.00;;;;;;;0.97;75.71;100382.06;4865831;29;20025;-76
2023/12/02 15:06:19;;;;;;;0.10;0.10;;;;;;;0.96;76.33;100391.19;4845945;29;20043;-77
2023/12/02 15:09:17;;;;;;;0.00;0.00;;;;;;;0.95;76.08;100392.19;4841047;29;20029;-77
2023/12/02 15:11:48;;;;;;;0.00;0.00;;;;;;;0.70;76.43;100376.59;4869627;29;20044;-75
2023/12/02 15:14:19;;;;;;;0.00;0.00;;;;;;;0.78;77.38;100416.81;4840791;29;20092;-76
2023/12/02 15:16:50;;;;;;;0.10;0.10;;;;;;;0.36;77.73;100382.91;4862592;29;20091;-76
2023/12/02 15:19:16;;;;;;;0.00;0.00;;;;;;;0.27;77.72;100385.75;4848461;29;20025;-75
2023/12/02 15:22:14;;;;;;;0.10;0.10;;;;;;;0.41;78.39;100410.00;4835492;29;20045;-75
2023/12/02 15:24:40;;;;;;;0.00;0.00;;;;;;;0.32;78.74;100401.28;4863703;29;20069;-75
2023/12/02 15:27:09;;;;;;;0.00;0.00;;;;;;;0.20;78.52;100409.09;4832435;29;20025;-75
2023/12/02 15:29:53;;;;;;;0.00;0.00;;;;;;;0.02;79.59;100412.28;4841276;29;20502;-76
2023/12/02 15:32:19;;;;;;;0.00;0.00;;;;;;;-0.06;80.02;100412.44;4871023;29;20090;-76
2023/12/02 15:34:45;;;;;;;0.00;0.00;;;;;;;-0.35;80.59;100374.00;4847776;29;20445;-77
2023/12/02 15:37:23;;;;;;;;;;;;;;;;;;;;;
2023/12/02 15:39:49;;;;;;;0.00;0.00;;;;;;;-0.07;81.36;100403.56;4856982;29;20033;-77
2023/12/02 15:42:15;;;;;;;0.10;0.10;;;;;;;-0.24;80.91;100378.81;4857627;29;20043;-78
2023/12/02 15:44:46;;;;;;;0.00;0.00;;;;;;;-0.29;81.23;100383.97;4854228;29;20029;-78
2023/12/02 15:47:13;;;;;;;0.00;0.00;;;;;;;-0.43;81.05;100377.66;4858471;29;20036;-78
2023/12/02 15:49:38;;;;;;;0.00;0.00;;;;;;;-0.61;82.07;100380.81;4869266;29;20033;-77